createdAt,value
2018-11-04T00:01:10.475Z,8.90
2018-11-04T00:03:39.216Z,8.80
2018-11-04T00:06:10.470Z,9.80
2018-11-04T00:08:43.012Z,9.83
2018-11-04T00:11:13.511Z,9.27
2018-11-04T00:13:41.919Z,13.03
2018-11-04T00:16:10.356Z,13.10
2018-11-04T00:18:38.767Z,9.57
2018-11-04T00:21:07.214Z,11.70
2018-11-04T00:23:35.588Z,11.43
2018-11-04T00:26:04.114Z,10.07
2018-11-04T00:28:32.554Z,9.50
2018-11-04T00:31:01.045Z,10.23
2018-11-04T00:33:29.460Z,9.20
2018-11-04T00:35:57.903Z,9.20
2018-11-04T00:38:26.290Z,8.90
2018-11-04T00:40:54.745Z,8.90
2018-11-04T00:43:23.195Z,9.67
2018-11-04T00:45:51.583Z,9.63
2018-11-04T00:48:20.076Z,9.90
2018-11-04T00:50:48.534Z,9.43
2018-11-04T00:53:16.952Z,9.93
2018-11-04T00:55:48.137Z,9.60
2018-11-04T00:58:16.586Z,9.50
2018-11-04T01:00:45.103Z,9.77
2018-11-04T01:03:13.491Z,8.10
2018-11-04T01:05:41.867Z,9.23
2018-11-04T01:08:10.313Z,8.60
2018-11-04T01:10:38.707Z,9.70
2018-11-04T01:13:07.136Z,9.23
2018-11-04T01:15:35.524Z,8.67
2018-11-04T01:18:04.015Z,9.67
2018-11-04T01:20:32.416Z,8.90
2018-11-04T01:23:00.835Z,8.90
2018-11-04T01:25:29.749Z,8.00
2018-11-04T01:27:59.146Z,8.87
2018-11-04T01:30:27.603Z,10.13
2018-11-04T01:32:55.964Z,10.60
2018-11-04T01:35:24.423Z,25.13
2018-11-04T01:37:52.813Z,22.87
2018-11-04T01:40:21.213Z,25.30
2018-11-04T01:42:50.545Z,19.33
2018-11-04T01:45:19.596Z,16.30
2018-11-04T01:47:48.827Z,19.77
2018-11-04T01:50:17.221Z,16.53
2018-11-04T01:52:46.202Z,13.20
2018-11-04T01:55:18.040Z,13.87
2018-11-04T01:57:47.393Z,16.30
2018-11-04T02:00:16.937Z,17.37
2018-11-04T02:02:46.015Z,13.20
2018-11-04T02:05:14.774Z,10.50
2018-11-04T02:07:43.205Z,10.73
2018-11-04T02:10:12.983Z,10.47
2018-11-04T02:12:41.422Z,12.67
2018-11-04T02:15:11.376Z,15.23
2018-11-04T02:17:39.875Z,11.50
2018-11-04T02:20:10.086Z,10.47
2018-11-04T02:22:38.569Z,10.10
2018-11-04T02:25:07.892Z,11.70
2018-11-04T02:27:36.344Z,10.90
2018-11-04T02:30:05.198Z,10.43
2018-11-04T02:32:33.594Z,11.37
2018-11-04T02:35:02.054Z,12.53
2018-11-04T02:37:30.504Z,10.07
2018-11-04T02:39:58.954Z,11.40
2018-11-04T02:42:27.392Z,10.47
2018-11-04T02:44:55.844Z,10.70
2018-11-04T02:47:24.280Z,11.00
2018-11-04T02:49:52.675Z,10.60
2018-11-04T02:52:21.210Z,10.40
2018-11-04T02:54:49.620Z,10.47
2018-11-04T02:57:18.004Z,9.83
2018-11-04T02:59:46.428Z,11.10
2018-11-04T03:02:14.844Z,9.80
2018-11-04T03:04:43.271Z,10.43
2018-11-04T03:07:11.710Z,10.37
2018-11-04T03:09:40.127Z,11.40
2018-11-04T03:12:08.568Z,9.73
2018-11-04T03:14:36.962Z,10.87
2018-11-04T03:17:05.556Z,10.27
2018-11-04T03:19:33.923Z,10.23
2018-11-04T03:22:02.311Z,10.50
2018-11-04T03:24:30.842Z,10.90
2018-11-04T03:26:59.211Z,10.80
2018-11-04T03:29:28.219Z,11.03
2018-11-04T03:31:56.595Z,10.83
2018-11-04T03:34:25.343Z,11.00
2018-11-04T03:36:54.755Z,11.70
2018-11-04T03:39:23.218Z,11.20
2018-11-04T03:41:52.870Z,11.40
2018-11-04T03:44:21.388Z,12.37
2018-11-04T03:46:50.643Z,10.63
2018-11-04T03:49:20.473Z,11.53
2018-11-04T03:51:48.870Z,10.70
2018-11-04T03:54:17.896Z,10.23
2018-11-04T03:56:46.586Z,10.70
2018-11-04T03:59:15.000Z,11.20
2018-11-04T04:01:43.425Z,11.57
2018-11-04T04:04:11.821Z,11.70
2018-11-04T04:06:40.243Z,11.10
2018-11-04T04:09:09.727Z,11.73
2018-11-04T04:11:39.183Z,10.97
2018-11-04T04:14:08.678Z,11.27
2018-11-04T04:16:37.614Z,11.60
2018-11-04T04:19:06.402Z,11.80
2018-11-04T04:21:34.807Z,12.33
2018-11-04T04:24:03.223Z,10.77
2018-11-04T04:26:31.609Z,12.23
2018-11-04T04:29:00.025Z,12.00
2018-11-04T04:31:28.579Z,12.07
2018-11-04T04:33:57.015Z,11.90
2018-11-04T04:36:25.424Z,12.67
2018-11-04T04:38:53.854Z,12.33
2018-11-04T04:41:22.292Z,11.20
2018-11-04T04:43:50.740Z,12.20
2018-11-04T04:46:19.160Z,11.33
2018-11-04T04:48:47.606Z,12.20
2018-11-04T04:51:16.013Z,11.10
2018-11-04T04:53:44.430Z,11.17
2018-11-04T04:56:12.879Z,10.53
2018-11-04T04:58:41.294Z,11.67
2018-11-04T05:01:09.673Z,12.53
2018-11-04T05:03:38.058Z,11.00
2018-11-04T05:06:06.492Z,12.83
2018-11-04T05:08:34.875Z,13.43
2018-11-04T05:11:03.336Z,12.73
2018-11-04T05:13:31.741Z,13.47
2018-11-04T05:16:00.180Z,13.70
2018-11-04T05:18:28.593Z,12.53
2018-11-04T05:20:57.014Z,13.03
2018-11-04T05:23:25.415Z,13.20
2018-11-04T05:25:53.836Z,12.07
2018-11-04T05:28:22.235Z,12.43
2018-11-04T05:30:50.633Z,14.00
2018-11-04T05:33:19.086Z,12.20
2018-11-04T05:35:47.540Z,13.20
2018-11-04T05:38:15.972Z,12.17
2018-11-04T05:40:44.367Z,13.80
2018-11-04T05:43:12.847Z,13.30
2018-11-04T05:45:41.216Z,14.07
2018-11-04T05:48:09.654Z,13.70
2018-11-04T05:50:38.062Z,13.20
2018-11-04T05:53:06.493Z,12.77
2018-11-04T05:55:34.918Z,13.03
2018-11-04T05:58:03.326Z,11.87
2018-11-04T06:00:31.769Z,12.90
2018-11-04T06:03:00.177Z,12.67
2018-11-04T06:05:28.572Z,12.00
2018-11-04T06:07:56.977Z,13.67
2018-11-04T06:10:25.398Z,12.03
2018-11-04T06:12:53.825Z,11.67
2018-11-04T06:15:22.248Z,12.53
2018-11-04T06:17:50.645Z,13.40
2018-11-04T06:20:19.034Z,11.80
2018-11-04T06:22:47.420Z,13.90
2018-11-04T06:25:15.813Z,13.20
2018-11-04T06:27:44.241Z,13.10
2018-11-04T06:30:13.468Z,13.40
2018-11-04T06:32:42.734Z,13.80
2018-11-04T06:35:11.140Z,13.77
2018-11-04T06:37:39.606Z,13.60
2018-11-04T06:40:08.914Z,14.10
2018-11-04T06:42:37.393Z,13.30
2018-11-04T06:45:06.783Z,13.70
2018-11-04T06:47:35.208Z,14.70
2018-11-04T06:50:03.674Z,14.80
2018-11-04T06:52:32.145Z,13.47
2018-11-04T06:55:00.506Z,14.07
2018-11-04T06:57:28.942Z,13.30
2018-11-04T06:59:57.364Z,14.43
2018-11-04T07:02:25.838Z,14.13
2018-11-04T07:04:54.275Z,13.00
2018-11-04T07:07:22.678Z,14.47
2018-11-04T07:09:51.137Z,14.50
2018-11-04T07:12:19.579Z,17.10
2018-11-04T07:14:48.004Z,15.70
2018-11-04T07:17:16.403Z,16.67
2018-11-04T07:19:44.833Z,16.27
2018-11-04T07:22:13.285Z,15.40
2018-11-04T07:24:41.711Z,16.67
2018-11-04T07:27:10.125Z,16.20
2018-11-04T07:29:38.613Z,14.70
2018-11-04T07:32:07.132Z,14.33
2018-11-04T07:34:35.497Z,13.43
2018-11-04T07:37:04.036Z,14.23
2018-11-04T07:39:32.497Z,15.40
2018-11-04T07:42:00.908Z,15.00
2018-11-04T07:44:29.433Z,15.87
2018-11-04T07:46:58.701Z,13.97
2018-11-04T07:49:27.144Z,15.10
2018-11-04T07:51:55.576Z,14.70
2018-11-04T07:54:24.020Z,14.97
2018-11-04T07:56:52.548Z,15.33
2018-11-04T07:59:20.988Z,15.90
2018-11-04T08:01:49.482Z,16.40
2018-11-04T08:04:17.950Z,16.30
2018-11-04T08:06:46.354Z,16.70
2018-11-04T08:09:14.787Z,15.67
2018-11-04T08:11:43.208Z,15.70
2018-11-04T08:14:11.691Z,14.80
2018-11-04T08:16:40.084Z,14.90
2018-11-04T08:19:09.641Z,15.10
2018-11-04T08:21:38.455Z,15.53
2018-11-04T08:24:07.226Z,15.50
2018-11-04T08:26:36.125Z,16.73
2018-11-04T08:29:04.602Z,16.30
2018-11-04T08:31:33.080Z,16.57
2018-11-04T08:34:01.496Z,17.30
2018-11-04T08:36:29.973Z,18.00
2018-11-04T08:38:58.400Z,18.40
2018-11-04T08:41:26.873Z,17.73
2018-11-04T08:43:55.316Z,16.70
2018-11-04T08:46:23.791Z,18.40
2018-11-04T08:48:52.224Z,16.47
2018-11-04T08:51:20.672Z,17.80
2018-11-04T08:53:49.117Z,18.87
2018-11-04T08:56:17.576Z,19.33
2018-11-04T08:58:45.990Z,17.20
2018-11-04T09:01:14.448Z,18.23
2018-11-04T09:03:42.916Z,18.30
2018-11-04T09:06:11.341Z,18.63
2018-11-04T09:08:39.863Z,18.73
2018-11-04T09:11:08.262Z,18.63
2018-11-04T09:13:36.675Z,23.67
2018-11-04T09:16:05.201Z,23.40
2018-11-04T09:18:33.633Z,26.80
2018-11-04T09:21:02.087Z,39.97
2018-11-04T09:23:30.555Z,36.67
2018-11-04T09:25:59.024Z,41.13
2018-11-04T09:28:27.526Z,116.90
2018-11-04T09:30:56.000Z,47.13
2018-11-04T09:33:24.490Z,30.03
2018-11-04T09:35:53.117Z,35.17
2018-11-04T09:38:21.429Z,29.27
2018-11-04T09:40:49.906Z,27.87
2018-11-04T09:43:18.390Z,31.03
2018-11-04T09:45:46.945Z,28.70
2018-11-04T09:48:15.375Z,28.30
2018-11-04T09:50:43.827Z,27.23
2018-11-04T09:53:12.237Z,26.77
2018-11-04T09:55:41.290Z,27.80
2018-11-04T09:58:09.896Z,30.70
2018-11-04T10:00:38.360Z,30.50
2018-11-04T10:03:06.761Z,31.50
2018-11-04T10:05:35.217Z,31.30
2018-11-04T10:08:03.729Z,30.57
2018-11-04T10:10:32.189Z,29.67
2018-11-04T10:13:00.668Z,72.00
2018-11-04T10:15:29.084Z,40.73
2018-11-04T10:17:57.465Z,43.50
2018-11-04T10:20:26.233Z,76.20
2018-11-04T10:22:54.324Z,43.60
2018-11-04T10:25:22.781Z,40.30
2018-11-04T10:27:51.196Z,30.83
2018-11-04T10:30:19.693Z,29.43
2018-11-04T10:32:48.118Z,28.10
2018-11-04T10:35:16.563Z,30.17
2018-11-04T10:37:45.079Z,33.27
2018-11-04T10:40:13.960Z,31.43
2018-11-04T10:42:42.399Z,30.83
2018-11-04T10:45:11.714Z,30.47
2018-11-04T10:47:40.187Z,30.00
2018-11-04T10:50:10.291Z,32.10
2018-11-04T10:52:38.728Z,31.80
2018-11-04T10:55:07.956Z,32.50
2018-11-04T10:57:36.424Z,32.20
2018-11-04T11:00:05.937Z,30.80
2018-11-04T11:02:34.458Z,31.17
2018-11-04T11:05:02.915Z,33.37
2018-11-04T11:07:31.384Z,32.17
2018-11-04T11:09:59.866Z,34.27
2018-11-04T11:12:28.312Z,32.40
2018-11-04T11:14:56.744Z,32.50
2018-11-04T11:17:25.134Z,33.20
2018-11-04T11:19:53.560Z,34.80
2018-11-04T11:22:22.095Z,31.60
2018-11-04T11:24:50.485Z,34.30
2018-11-04T11:27:18.953Z,33.07
2018-11-04T11:29:47.419Z,32.03
2018-11-04T11:32:15.885Z,31.73
2018-11-04T11:34:44.321Z,33.10
2018-11-04T11:37:12.759Z,31.27
2018-11-04T11:39:41.177Z,31.10
2018-11-04T11:42:09.657Z,29.27
2018-11-04T11:44:38.114Z,32.30
2018-11-04T11:47:06.786Z,31.00
2018-11-04T11:49:35.267Z,32.30
2018-11-04T11:52:03.703Z,33.50
2018-11-04T11:54:32.125Z,36.20
2018-11-04T11:57:00.572Z,33.57
2018-11-04T11:59:29.102Z,36.23
2018-11-04T12:01:57.494Z,32.43
2018-11-04T12:04:25.869Z,31.60
2018-11-04T12:06:54.380Z,32.83
2018-11-04T12:09:22.863Z,31.30
2018-11-04T12:11:51.329Z,30.97
2018-11-04T12:14:19.770Z,29.83
2018-11-04T12:16:48.464Z,29.77
2018-11-04T12:19:16.966Z,30.47
2018-11-04T12:21:45.453Z,30.17
2018-11-04T12:24:13.926Z,34.27
2018-11-04T12:26:42.445Z,46.37
2018-11-04T12:29:10.947Z,31.43
2018-11-04T12:31:39.380Z,31.27
2018-11-04T12:34:07.814Z,28.00
2018-11-04T12:36:36.320Z,29.80
2018-11-04T12:39:05.777Z,30.43
2018-11-04T12:41:34.228Z,27.60
2018-11-04T12:44:02.726Z,30.13
2018-11-04T12:46:31.182Z,29.77
2018-11-04T12:48:59.691Z,30.10
2018-11-04T12:51:28.333Z,29.40
2018-11-04T12:53:56.726Z,28.63
2018-11-04T12:56:25.135Z,29.27
2018-11-04T12:58:53.652Z,30.37
2018-11-04T13:01:22.106Z,30.27
2018-11-04T13:03:50.605Z,28.37
2018-11-04T13:06:19.083Z,28.50
2018-11-04T13:08:47.600Z,28.23
2018-11-04T13:11:16.079Z,28.80
2018-11-04T13:13:44.594Z,29.00
2018-11-04T13:16:13.104Z,27.80
2018-11-04T13:18:41.921Z,28.57
2018-11-04T13:21:10.478Z,30.90
2018-11-04T13:23:38.877Z,33.00
2018-11-04T13:26:07.385Z,28.70
2018-11-04T13:28:35.784Z,27.57
2018-11-04T13:31:04.305Z,29.13
2018-11-04T13:33:32.800Z,29.00
2018-11-04T13:36:01.426Z,29.43
2018-11-04T13:38:30.050Z,33.50
2018-11-04T13:41:00.292Z,29.23
2018-11-04T13:43:29.677Z,29.03
2018-11-04T13:45:58.171Z,28.80
2018-11-04T13:48:26.615Z,28.53
2018-11-04T13:50:55.067Z,26.43
2018-11-04T13:53:23.509Z,26.23
2018-11-04T13:55:52.004Z,28.13
2018-11-04T13:58:21.641Z,27.10
2018-11-04T14:00:50.132Z,27.10
2018-11-04T14:03:18.626Z,27.70
2018-11-04T14:05:47.153Z,26.00
2018-11-04T14:08:15.615Z,26.43
2018-11-04T14:10:44.071Z,25.13
2018-11-04T14:13:12.598Z,26.97
2018-11-04T14:15:42.290Z,27.23
2018-11-04T14:18:10.757Z,26.17
2018-11-04T14:20:40.948Z,26.17
2018-11-04T14:23:09.393Z,24.67
2018-11-04T14:25:37.855Z,26.53
2018-11-04T14:28:06.325Z,25.40
2018-11-04T14:30:34.764Z,27.23
2018-11-04T14:33:03.229Z,26.20
2018-11-04T14:35:31.670Z,26.57
2018-11-04T14:38:00.206Z,25.37
2018-11-04T14:40:28.714Z,24.97
2018-11-04T14:42:57.214Z,25.23
2018-11-04T14:45:25.698Z,23.53
2018-11-04T14:47:54.319Z,24.50
2018-11-04T14:50:22.790Z,26.47
2018-11-04T14:52:51.230Z,25.63
2018-11-04T14:55:19.658Z,22.97
2018-11-04T14:57:48.140Z,24.87
2018-11-04T15:00:17.056Z,23.70
2018-11-04T15:02:45.507Z,25.07
2018-11-04T15:05:14.013Z,25.40
2018-11-04T15:07:42.487Z,25.70
2018-11-04T15:10:12.832Z,24.70
2018-11-04T15:12:41.406Z,25.00
2018-11-04T15:15:12.122Z,24.77
2018-11-04T15:17:41.176Z,23.33
2018-11-04T15:20:10.616Z,24.67
2018-11-04T15:22:42.926Z,24.33
2018-11-04T15:25:11.347Z,25.17
2018-11-04T15:27:39.865Z,25.63
2018-11-04T15:30:09.358Z,28.27
2018-11-04T15:32:37.890Z,24.43
2018-11-04T15:35:06.464Z,25.10
2018-11-04T15:37:34.908Z,23.10
2018-11-04T15:40:03.563Z,23.73
2018-11-04T15:42:32.133Z,22.90
2018-11-04T15:45:00.576Z,23.80
2018-11-04T15:47:29.086Z,24.13
2018-11-04T15:49:57.509Z,28.20
2018-11-04T15:52:25.975Z,22.20
2018-11-04T15:54:54.489Z,23.90
2018-11-04T15:57:22.961Z,20.83
2018-11-04T15:59:51.416Z,24.53
2018-11-04T16:02:19.937Z,21.50
2018-11-04T16:04:48.376Z,22.00
2018-11-04T16:07:16.893Z,21.20
2018-11-04T16:09:45.308Z,23.60
2018-11-04T16:12:13.781Z,21.40
2018-11-04T16:14:42.185Z,21.53
2018-11-04T16:17:10.608Z,21.50
2018-11-04T16:19:39.013Z,20.70
2018-11-04T16:22:07.467Z,22.17
2018-11-04T16:24:35.907Z,22.33
2018-11-04T16:27:04.393Z,21.23
2018-11-04T16:29:32.827Z,20.67
2018-11-04T16:32:01.437Z,22.87
2018-11-04T16:34:29.780Z,21.27
2018-11-04T16:36:58.247Z,20.97
2018-11-04T16:39:26.741Z,27.60
2018-11-04T16:41:55.243Z,22.70
2018-11-04T16:44:23.894Z,25.50
2018-11-04T16:46:52.207Z,24.70
2018-11-04T16:49:20.655Z,27.37
2018-11-04T16:51:49.118Z,30.17
2018-11-04T16:54:17.598Z,21.57
2018-11-04T16:56:46.023Z,18.20
2018-11-04T16:59:14.472Z,20.30
2018-11-04T17:01:42.918Z,22.43
2018-11-04T17:04:11.409Z,19.30
2018-11-04T17:06:39.866Z,19.10
2018-11-04T17:09:10.924Z,19.40
2018-11-04T17:11:39.394Z,17.57
2018-11-04T17:14:08.116Z,19.20
2018-11-04T17:16:38.012Z,17.57
2018-11-04T17:19:07.085Z,17.90
2018-11-04T17:21:37.418Z,18.90
2018-11-04T17:24:05.903Z,18.17
2018-11-04T17:26:34.377Z,20.10
2018-11-04T17:29:02.809Z,20.00
2018-11-04T17:31:31.260Z,19.40
2018-11-04T17:33:59.715Z,17.10
2018-11-04T17:36:28.280Z,20.30
2018-11-04T17:38:56.657Z,31.37
2018-11-04T17:41:25.182Z,22.93
2018-11-04T17:43:53.718Z,19.67
2018-11-04T17:46:22.136Z,20.90
2018-11-04T17:48:50.659Z,19.50
2018-11-04T17:51:20.150Z,21.60
2018-11-04T17:53:48.593Z,20.27
2018-11-04T17:56:17.028Z,19.00
2018-11-04T17:58:45.504Z,18.37
2018-11-04T18:01:13.975Z,17.10
2018-11-04T18:03:43.137Z,18.60
2018-11-04T18:06:11.638Z,18.97
2018-11-04T18:08:40.305Z,17.60
2018-11-04T18:11:08.775Z,16.57
2018-11-04T18:13:37.229Z,17.60
2018-11-04T18:16:05.785Z,19.23
2018-11-04T18:18:34.308Z,17.00
2018-11-04T18:21:02.810Z,18.03
2018-11-04T18:23:31.313Z,17.73
2018-11-04T18:25:59.741Z,19.07
2018-11-04T18:28:28.157Z,26.83
2018-11-04T18:30:56.701Z,19.77
2018-11-04T18:33:25.167Z,22.50
2018-11-04T18:35:53.692Z,18.13
2018-11-04T18:38:22.103Z,17.90
2018-11-04T18:40:50.596Z,18.60
2018-11-04T18:43:19.040Z,18.43
2018-11-04T18:45:47.514Z,16.27
2018-11-04T18:48:15.963Z,16.60
2018-11-04T18:50:44.380Z,17.50
2018-11-04T18:53:12.833Z,17.03
2018-11-04T18:55:41.263Z,17.13
2018-11-04T18:58:09.715Z,18.50
2018-11-04T19:00:38.135Z,17.43
2018-11-04T19:03:06.632Z,22.47
2018-11-04T19:05:35.257Z,23.10
2018-11-04T19:08:04.867Z,22.37
2018-11-04T19:10:33.354Z,18.53
2018-11-04T19:13:01.850Z,17.93
2018-11-04T19:15:30.880Z,21.03
2018-11-04T19:17:59.356Z,17.73
2018-11-04T19:20:27.821Z,17.30
2018-11-04T19:22:56.307Z,16.07
2018-11-04T19:25:24.739Z,16.60
2018-11-04T19:27:53.222Z,16.70
2018-11-04T19:30:21.666Z,17.33
2018-11-04T19:32:51.209Z,16.17
2018-11-04T19:35:19.668Z,15.90
2018-11-04T19:37:48.156Z,17.00
2018-11-04T19:40:17.412Z,16.60
2018-11-04T19:42:46.010Z,15.83
2018-11-04T19:45:14.415Z,16.97
2018-11-04T19:47:42.898Z,17.57
2018-11-04T19:50:12.682Z,16.00
2018-11-04T19:52:41.582Z,17.03
2018-11-04T19:55:10.703Z,16.33
2018-11-04T19:57:39.125Z,15.70
2018-11-04T20:00:13.196Z,17.40
2018-11-04T20:02:41.737Z,27.47
2018-11-04T20:05:11.991Z,16.83
2018-11-04T20:07:40.444Z,16.77
2018-11-04T20:10:11.598Z,16.20
2018-11-04T20:12:45.274Z,16.27
2018-11-04T20:15:13.743Z,15.97
2018-11-04T20:17:42.248Z,17.00
2018-11-04T20:20:14.481Z,16.97
2018-11-04T20:22:42.984Z,17.13
2018-11-04T20:25:16.558Z,19.53
2018-11-04T20:27:45.005Z,19.07
2018-11-04T20:30:14.155Z,17.70
2018-11-04T20:32:47.844Z,17.77
2018-11-04T20:35:16.772Z,18.10
2018-11-04T20:37:45.346Z,18.60
2018-11-04T20:40:19.088Z,18.43
2018-11-04T20:42:47.574Z,19.53
2018-11-04T20:45:16.059Z,19.80
2018-11-04T20:49:55.343Z,18.73
2018-11-04T20:52:23.758Z,18.10
2018-11-04T20:54:52.282Z,16.50
2018-11-04T20:57:26.017Z,16.30
2018-11-04T20:59:54.459Z,16.53
2018-11-04T21:02:23.091Z,15.60
2018-11-04T21:04:51.475Z,15.00
2018-11-04T21:07:19.927Z,14.63
2018-11-04T21:09:48.432Z,14.50
2018-11-04T21:12:16.864Z,15.50
2018-11-04T21:14:45.301Z,15.30
2018-11-04T21:17:13.802Z,14.40
2018-11-04T21:19:42.334Z,15.00
2018-11-04T21:22:11.648Z,14.67
2018-11-04T21:24:40.404Z,15.50
2018-11-04T21:27:08.940Z,15.20
2018-11-04T21:29:38.033Z,14.47
2018-11-04T21:32:06.770Z,14.60
2018-11-04T21:34:35.252Z,13.80
2018-11-04T21:37:04.461Z,14.80
2018-11-04T21:39:32.864Z,13.80
2018-11-04T21:42:01.461Z,13.87
2018-11-04T21:44:29.979Z,14.80
2018-11-04T21:46:58.456Z,13.00
2018-11-04T21:49:26.969Z,14.33
2018-11-04T21:51:55.368Z,13.63
2018-11-04T21:54:23.814Z,13.60
2018-11-04T21:56:52.304Z,15.87
2018-11-04T21:59:20.767Z,15.77
2018-11-04T22:01:49.703Z,37.60
2018-11-04T22:04:18.275Z,38.83
2018-11-04T22:06:46.645Z,32.33
2018-11-04T22:09:15.095Z,28.43
2018-11-04T22:11:43.549Z,27.73
2018-11-04T22:14:11.948Z,23.60
2018-11-04T22:16:40.513Z,22.20
2018-11-04T22:19:08.974Z,20.77
2018-11-04T22:21:37.445Z,19.20
2018-11-04T22:24:06.014Z,17.67
2018-11-04T22:26:34.439Z,16.37
2018-11-04T22:29:02.874Z,16.07
2018-11-04T22:31:31.287Z,14.53
2018-11-04T22:33:59.717Z,13.77
2018-11-04T22:36:28.137Z,12.70
2018-11-04T22:38:56.589Z,14.20
2018-11-04T22:41:25.009Z,12.60
2018-11-04T22:43:53.482Z,13.70
2018-11-04T22:46:21.936Z,13.90
2018-11-04T22:48:50.418Z,13.60
2018-11-04T22:51:18.830Z,15.27
2018-11-04T22:53:47.325Z,14.77
2018-11-04T22:56:15.768Z,16.37
2018-11-04T22:58:44.187Z,14.10
2018-11-04T23:01:12.561Z,14.67
2018-11-04T23:03:41.040Z,13.80
2018-11-04T23:06:09.544Z,13.87
2018-11-04T23:08:37.962Z,14.70
2018-11-04T23:11:06.410Z,12.30
2018-11-04T23:13:34.852Z,13.20
2018-11-04T23:16:03.288Z,13.10
2018-11-04T23:18:31.761Z,13.20
2018-11-04T23:21:00.176Z,14.77
2018-11-04T23:23:28.633Z,13.27
2018-11-04T23:25:57.041Z,12.73
2018-11-04T23:28:25.469Z,10.93
2018-11-04T23:30:54.026Z,12.03
2018-11-04T23:33:22.484Z,13.60
2018-11-04T23:35:50.900Z,11.80
2018-11-04T23:38:19.288Z,11.43
2018-11-04T23:40:47.697Z,11.93
2018-11-04T23:57:39.145Z,14.00
